»·PEaware :: N2330C KSMX-KBFL

N2330C :: KSMX-KBFL

FLIGHT INFORMATION

Flight Status: Arrived
Operator: Privately registered:
United States
More flights under this callsign
Pilot: Walt M. (574)
Aircraft: CESSNA 182 SKYLANE
(C182)
More flights by this aircraft type
Origin: KSMX Santa Maria Pub/Capt Hancock
United States
Destination: KBFL Meadows
United States
More flights between these airports :: More routes between these airports
Route: +KSMX FLW EHF KBFL
File this flight plan on PilotEdge
Remarks:
Altitude:
(Current/Filed)
55ft
Speed:
(Current/Filed)
130kts
Departed: 30-Sep-17 01:44 PM
Arrived: 30-Sep-17 02:28 PM
Distance/Time
Traveled:
76nm/0:43
Distance/Time
To Go:
Arrived

Flight Plot

Page will automatically refresh every two minutes.

Flight plan parsing failed; only flown route is shown


Map Options




Map Legend


Flown Route
Filed Route
Departure Airport
Arrival Airport
Navaid (VOR, NDB)
Fix

Horizontal Profiles

Position Reports

Time Latitude Longitude Heading Altitude Ground
Speed
30-Sep-17 13:20 34.898984 -120.448806 220 264ft 0kts
30-Sep-17 13:21 34.898983 -120.448807 220 264ft 0kts
30-Sep-17 13:22 34.898982 -120.448808 220 264ft 0kts
30-Sep-17 13:23 34.898981 -120.448809 220 264ft 0kts
30-Sep-17 13:24 34.898981 -120.448810 220 264ft 0kts
30-Sep-17 13:25 34.898980 -120.448811 220 264ft 0kts
30-Sep-17 13:26 34.898979 -120.448812 220 264ft 0kts
30-Sep-17 13:27 34.898978 -120.448813 220 264ft 0kts
30-Sep-17 13:28 34.898977 -120.448814 220 264ft 0kts
30-Sep-17 13:29 34.898976 -120.448815 220 264ft 0kts
30-Sep-17 13:30 34.898976 -120.448816 220 264ft 0kts
30-Sep-17 13:31 34.898975 -120.448816 220 264ft 0kts
30-Sep-17 13:32 34.898975 -120.448817 220 264ft 0kts
30-Sep-17 13:33 34.898973 -120.448819 220 264ft 0kts
30-Sep-17 13:34 34.898972 -120.448821 220 264ft 0kts
30-Sep-17 13:35 34.898971 -120.448822 220 264ft 0kts
30-Sep-17 13:36 34.898969 -120.448824 220 264ft 0kts
30-Sep-17 13:37 34.898968 -120.448826 220 264ft 0kts
30-Sep-17 13:38 34.898966 -120.448828 220 264ft 0kts
30-Sep-17 13:39 34.898965 -120.448831 220 264ft 0kts
30-Sep-17 13:40 34.898963 -120.448833 220 264ft 0kts
30-Sep-17 13:41 34.898961 -120.448836 220 264ft 0kts
30-Sep-17 13:42 34.898958 -120.448839 220 264ft 0kts
30-Sep-17 13:43 34.898777 -120.449031 220 264ft 0kts
30-Sep-17 13:44 34.898081 -120.449720 161 264ft 7kts
30-Sep-17 13:45 34.895189 -120.446342 136 264ft 15kts
30-Sep-17 13:46 34.893606 -120.444949 183 264ft 0kts
30-Sep-17 13:47 34.893101 -120.445184 232 264ft 1kts
30-Sep-17 13:48 34.894804 -120.448290 310 264ft 62kts
30-Sep-17 13:49 34.910747 -120.465935 323 1068ft 82kts
30-Sep-17 13:50 34.922851 -120.443542 103 1854ft 110kts
30-Sep-17 13:51 34.915572 -120.407589 96 2569ft 107kts
30-Sep-17 13:52 34.921347 -120.374264 65 3243ft 100kts
30-Sep-17 13:53 34.931260 -120.342620 58 3832ft 100kts
30-Sep-17 13:54 34.941758 -120.311034 65 4361ft 101kts
30-Sep-17 13:55 34.952402 -120.279166 61 4848ft 101kts
30-Sep-17 13:56 34.960793 -120.245891 73 5285ft 104kts
30-Sep-17 13:57 34.970714 -120.213179 60 5670ft 103kts
30-Sep-17 13:58 34.981761 -120.181449 54 6091ft 97kts
30-Sep-17 13:59 34.995121 -120.152345 63 6533ft 99kts
30-Sep-17 14:00 35.006636 -120.122655 45 7088ft 95kts
30-Sep-17 14:01 35.017701 -120.091197 61 7413ft 112kts
30-Sep-17 14:02 35.029037 -120.054050 63 7449ft 122kts
30-Sep-17 14:03 35.042780 -120.016238 56 7428ft 121kts
30-Sep-17 14:04 35.057573 -119.979283 66 7413ft 123kts
30-Sep-17 14:05 35.065877 -119.938337 64 7392ft 123kts
30-Sep-17 14:06 35.080075 -119.902060 53 7410ft 117kts
30-Sep-17 14:07 35.093032 -119.865039 67 7470ft 121kts
30-Sep-17 14:08 35.106512 -119.827806 57 7511ft 119kts
30-Sep-17 14:09 35.123804 -119.793627 53 7540ft 119kts
30-Sep-17 14:10 35.140486 -119.758423 53 7529ft 124kts
30-Sep-17 14:11 35.158953 -119.723669 46 7584ft 120kts
30-Sep-17 14:12 35.181462 -119.694113 43 7611ft 120kts
30-Sep-17 14:13 35.199074 -119.658847 56 7638ft 123kts
30-Sep-17 14:14 35.215678 -119.621978 50 7636ft 123kts
30-Sep-17 14:15 35.234456 -119.587028 55 7599ft 124kts
30-Sep-17 14:16 35.251522 -119.550203 53 7093ft 124kts
30-Sep-17 14:17 35.270130 -119.514307 51 6382ft 124kts
30-Sep-17 14:18 35.289407 -119.480329 49 5698ft 120kts
30-Sep-17 14:19 35.308697 -119.448354 48 5402ft 113kts
30-Sep-17 14:20 35.327197 -119.416866 54 5243ft 115kts
30-Sep-17 14:21 35.343289 -119.382942 56 4882ft 115kts
30-Sep-17 14:22 35.358504 -119.348550 57 4475ft 115kts
30-Sep-17 14:23 35.367066 -119.310674 78 4126ft 116kts
30-Sep-17 14:24 35.370391 -119.271170 83 3560ft 116kts
30-Sep-17 14:25 35.375059 -119.232336 74 3056ft 114kts
30-Sep-17 14:26 35.382665 -119.194594 71 2987ft 114kts
30-Sep-17 14:27 35.389979 -119.156838 73 2970ft 112kts
30-Sep-17 14:28 35.395202 -119.118454 81 2652ft 114kts
30-Sep-17 14:29 35.395711 -119.080771 86 1990ft 106kts
30-Sep-17 14:30 35.404394 -119.048502 45 1310ft 96kts
30-Sep-17 14:31 35.422689 -119.046281 313 569ft 76kts
30-Sep-17 14:32 35.429766 -119.054864 316 510ft 19kts
30-Sep-17 14:33 35.431127 -119.055751 39 510ft 0kts
30-Sep-17 14:34 35.432783 -119.053227 62 510ft 11kts
30-Sep-17 14:35 35.434756 -119.051094 190 510ft 3kts
30-Sep-17 14:36 35.434724 -119.051086 158 510ft 0kts
30-Sep-17 14:37 35.434722 -119.051085 158 510ft 0kts
30-Sep-17 14:38 35.434720 -119.051084 158 510ft 0kts
30-Sep-17 14:39 35.434718 -119.051083 158 510ft 0kts
30-Sep-17 14:40 35.434717 -119.051083 158 510ft 0kts

Navigation Log

Ident Type
Flight plan parsing failed, navigation log unavailable